sensor_id;sensor_type;location;lat;lon;timestamp;pressure;altitude;pressure_sealevel;temperature;humidity
71145;BME280;58812;47.698;17.726;2023-11-25T00:02:14;98529.59;;;2.03;95.81
71145;BME280;58812;47.698;17.726;2023-11-25T00:04:39;98523.34;;;2.04;95.67
71145;BME280;58812;47.698;17.726;2023-11-25T00:07:04;98528.31;;;2.07;95.30
71145;BME280;58812;47.698;17.726;2023-11-25T00:09:30;98522.22;;;2.06;95.28
71145;BME280;58812;47.698;17.726;2023-11-25T00:11:55;98527.25;;;2.09;95.47
71145;BME280;58812;47.698;17.726;2023-11-25T00:14:21;98529.72;;;2.11;95.42
71145;BME280;58812;47.698;17.726;2023-11-25T00:16:46;98524.75;;;2.08;95.43
71145;BME280;58812;47.698;17.726;2023-11-25T00:19:12;98530.84;;;2.08;95.26
71145;BME280;58812;47.698;17.726;2023-11-25T00:21:37;98526.25;;;2.10;95.72
71145;BME280;58812;47.698;17.726;2023-11-25T00:24:02;98524.19;;;2.14;95.54
71145;BME280;58812;47.698;17.726;2023-11-25T00:26:28;98532.94;;;2.14;95.52
71145;BME280;58812;47.698;17.726;2023-11-25T00:28:53;98527.53;;;2.16;95.34
71145;BME280;58812;47.698;17.726;2023-11-25T00:31:19;98531.00;;;2.17;94.82
71145;BME280;58812;47.698;17.726;2023-11-25T00:33:45;98535.16;;;2.19;94.77
71145;BME280;58812;47.698;17.726;2023-11-25T00:36:10;98529.63;;;2.22;95.03
71145;BME280;58812;47.698;17.726;2023-11-25T00:38:36;98531.03;;;2.26;95.29
71145;BME280;58812;47.698;17.726;2023-11-25T00:41:03;98526.69;;;2.25;95.51
71145;BME280;58812;47.698;17.726;2023-11-25T00:43:31;98528.66;;;2.23;95.26
71145;BME280;58812;47.698;17.726;2023-11-25T00:45:57;98531.13;;;2.15;95.04
71145;BME280;58812;47.698;17.726;2023-11-25T00:48:23;98531.13;;;2.15;95.43
71145;BME280;58812;47.698;17.726;2023-11-25T00:50:48;98520.47;;;2.26;95.74
71145;BME280;58812;47.698;17.726;2023-11-25T00:53:15;98527.53;;;2.35;95.84
71145;BME280;58812;47.698;17.726;2023-11-25T00:55:40;98523.66;;;2.39;95.99
71145;BME280;58812;47.698;17.726;2023-11-25T00:58:05;98516.00;;;2.36;96.19
71145;BME280;58812;47.698;17.726;2023-11-25T01:00:31;98520.75;;;2.33;97.06
71145;BME280;58812;47.698;17.726;2023-11-25T01:02:57;98522.78;;;2.10;96.44
71145;BME280;58812;47.698;17.726;2023-11-25T01:05:22;98520.94;;;2.01;97.07
71145;BME280;58812;47.698;17.726;2023-11-25T01:07:48;98526.06;;;1.93;97.42
71145;BME280;58812;47.698;17.726;2023-11-25T01:10:14;98527.59;;;1.85;98.22
71145;BME280;58812;47.698;17.726;2023-11-25T01:12:39;98536.88;;;1.80;98.79
71145;BME280;58812;47.698;17.726;2023-11-25T01:15:05;98517.81;;;1.76;99.16
71145;BME280;58812;47.698;17.726;2023-11-25T01:17:32;98512.25;;;1.70;99.69
71145;BME280;58812;47.698;17.726;2023-11-25T01:19:58;98498.53;;;1.66;100.00
71145;BME280;58812;47.698;17.726;2023-11-25T01:22:24;98499.47;;;1.65;100.00
71145;BME280;58812;47.698;17.726;2023-11-25T01:24:51;98499.34;;;1.67;100.00
71145;BME280;58812;47.698;17.726;2023-11-25T01:27:16;98499.06;;;1.70;100.00
71145;BME280;58812;47.698;17.726;2023-11-25T01:29:42;98497.84;;;1.74;99.97
71145;BME280;58812;47.698;17.726;2023-11-25T01:32:07;98503.81;;;1.76;100.00
71145;BME280;58812;47.698;17.726;2023-11-25T01:34:32;98496.31;;;1.81;99.88
71145;BME280;58812;47.698;17.726;2023-11-25T01:36:58;98493.16;;;1.87;99.00
71145;BME280;58812;47.698;17.726;2023-11-25T01:39:23;98485.81;;;1.91;99.19
71145;BME280;58812;47.698;17.726;2023-11-25T01:41:51;98480.97;;;1.96;98.98
71145;BME280;58812;47.698;17.726;2023-11-25T01:44:16;98493.88;;;1.99;99.17
71145;BME280;58812;47.698;17.726;2023-11-25T01:46:42;98478.88;;;1.99;99.37
71145;BME280;58812;47.698;17.726;2023-11-25T01:49:14;98477.34;;;1.97;99.49
71145;BME280;58812;47.698;17.726;2023-11-25T01:51:44;98477.75;;;1.92;99.86
71145;BME280;58812;47.698;17.726;2023-11-25T01:54:12;98470.22;;;1.87;100.00
71145;BME280;58812;47.698;17.726;2023-11-25T01:56:42;98477.72;;;1.82;100.00
71145;BME280;58812;47.698;17.726;2023-11-25T01:59:18;98473.56;;;1.80;99.86
71145;BME280;58812;47.698;17.726;2023-11-25T02:01:44;98473.41;;;1.81;99.12
71145;BME280;58812;47.698;17.726;2023-11-25T02:04:10;98460.09;;;1.83;99.14
71145;BME280;58812;47.698;17.726;2023-11-25T02:06:35;98453.28;;;1.80;99.31
71145;BME280;58812;47.698;17.726;2023-11-25T02:09:01;98460.50;;;1.78;99.25
71145;BME280;58812;47.698;17.726;2023-11-25T02:11:26;98455.22;;;1.78;99.53
71145;BME280;58812;47.698;17.726;2023-11-25T02:13:52;98457.44;;;1.83;98.95
71145;BME280;58812;47.698;17.726;2023-11-25T02:16:18;98468.81;;;1.83;98.70
71145;BME280;58812;47.698;17.726;2023-11-25T02:18:45;98466.34;;;1.82;98.05
71145;BME280;58812;47.698;17.726;2023-11-25T02:21:11;98470.53;;;1.84;97.45
71145;BME280;58812;47.698;17.726;2023-11-25T02:23:36;98470.78;;;1.81;96.79
71145;BME280;58812;47.698;17.726;2023-11-25T02:26:01;98461.44;;;1.77;96.74
71145;BME280;58812;47.698;17.726;2023-11-25T02:28:28;98473.12;;;1.75;96.68
71145;BME280;58812;47.698;17.726;2023-11-25T02:30:53;98466.88;;;1.76;95.80
71145;BME280;58812;47.698;17.726;2023-11-25T02:33:19;98473.81;;;1.67;96.43
71145;BME280;58812;47.698;17.726;2023-11-25T02:35:47;98474.59;;;1.58;96.82
71145;BME280;58812;47.698;17.726;2023-11-25T02:38:13;98478.75;;;1.51;97.07
71145;BME280;58812;47.698;17.726;2023-11-25T02:40:41;98472.34;;;1.44;97.46
71145;BME280;58812;47.698;17.726;2023-11-25T02:43:06;98469.50;;;1.36;98.00
71145;BME280;58812;47.698;17.726;2023-11-25T02:45:37;98467.28;;;1.31;98.13
71145;BME280;58812;47.698;17.726;2023-11-25T02:48:03;98469.34;;;1.27;98.51
71145;BME280;58812;47.698;17.726;2023-11-25T02:50:29;98476.13;;;1.20;98.83
71145;BME280;58812;47.698;17.726;2023-11-25T02:52:55;98471.81;;;1.19;99.06
71145;BME280;58812;47.698;17.726;2023-11-25T02:55:21;98475.91;;;1.12;99.14
71145;BME280;58812;47.698;17.726;2023-11-25T02:57:46;98473.94;;;1.04;99.21
71145;BME280;58812;47.698;17.726;2023-11-25T03:00:16;98469.84;;;0.91;99.73
71145;BME280;58812;47.698;17.726;2023-11-25T03:03:02;98467.75;;;0.85;100.00
71145;BME280;58812;47.698;17.726;2023-11-25T03:05:38;98465.16;;;0.73;100.00
71145;BME280;58812;47.698;17.726;2023-11-25T03:08:08;98464.13;;;0.65;100.00
71145;BME280;58812;47.698;17.726;2023-11-25T03:10:35;98459.38;;;0.59;100.00
71145;BME280;58812;47.698;17.726;2023-11-25T03:13:00;98479.88;;;0.55;100.00
71145;BME280;58812;47.698;17.726;2023-11-25T03:15:26;98479.03;;;0.55;100.00
71145;BME280;58812;47.698;17.726;2023-11-25T03:17:51;98469.59;;;0.52;100.00
71145;BME280;58812;47.698;17.726;2023-11-25T03:20:17;98459.84;;;0.43;100.00
71145;BME280;58812;47.698;17.726;2023-11-25T03:22:42;98455.31;;;0.34;100.00
71145;BME280;58812;47.698;17.726;2023-11-25T03:25:09;98465.97;;;0.32;100.00
71145;BME280;58812;47.698;17.726;2023-11-25T03:27:34;98456.66;;;0.28;100.00
71145;BME280;58812;47.698;17.726;2023-11-25T03:30:03;98454.37;;;0.23;100.00
71145;BME280;58812;47.698;17.726;2023-11-25T03:32:32;98458.38;;;0.18;100.00
71145;BME280;58812;47.698;17.726;2023-11-25T03:34:57;98458.50;;;0.16;100.00
71145;BME280;58812;47.698;17.726;2023-11-25T03:37:22;98467.63;;;0.12;100.00
71145;BME280;58812;47.698;17.726;2023-11-25T03:39:49;98472.16;;;0.10;100.00
71145;BME280;58812;47.698;17.726;2023-11-25T03:42:16;98466.75;;;0.12;100.00
71145;BME280;58812;47.698;17.726;2023-11-25T03:44:45;98463.72;;;0.28;100.00
71145;BME280;58812;47.698;17.726;2023-11-25T03:47:11;98466.63;;;0.24;100.00
71145;BME280;58812;47.698;17.726;2023-11-25T03:49:36;98469.44;;;0.33;100.00
71145;BME280;58812;47.698;17.726;2023-11-25T03:52:02;98466.09;;;0.31;100.00
71145;BME280;58812;47.698;17.726;2023-11-25T03:54:27;98471.38;;;0.31;100.00
71145;BME280;58812;47.698;17.726;2023-11-25T03:56:53;98467.03;;;0.30;100.00
71145;BME280;58812;47.698;17.726;2023-11-25T03:59:18;98466.94;;;0.31;100.00
71145;BME280;58812;47.698;17.726;2023-11-25T04:01:44;98475.31;;;0.36;100.00
71145;BME280;58812;47.698;17.726;2023-11-25T04:04:12;98480.19;;;0.30;100.00
71145;BME280;58812;47.698;17.726;2023-11-25T04:06:37;98484.75;;;0.28;100.00
71145;BME280;58812;47.698;17.726;2023-11-25T04:09:03;98482.97;;;0.28;100.00
71145;BME280;58812;47.698;17.726;2023-11-25T04:11:29;98485.22;;;0.33;100.00
71145;BME280;58812;47.698;17.726;2023-11-25T04:13:55;98483.81;;;0.29;100.00
71145;BME280;58812;47.698;17.726;2023-11-25T04:16:23;98484.41;;;0.32;100.00
71145;BME280;58812;47.698;17.726;2023-11-25T04:18:48;98495.75;;;0.33;100.00
71145;BME280;58812;47.698;17.726;2023-11-25T04:21:14;98499.09;;;0.35;100.00
71145;BME280;58812;47.698;17.726;2023-11-25T04:23:39;98501.34;;;0.39;100.00
71145;BME280;58812;47.698;17.726;2023-11-25T04:26:05;98497.75;;;0.40;100.00
71145;BME280;58812;47.698;17.726;2023-11-25T04:28:31;98493.09;;;0.44;100.00
71145;BME280;58812;47.698;17.726;2023-11-25T04:30:59;98497.84;;;0.50;100.00
71145;BME280;58812;47.698;17.726;2023-11-25T04:33:24;98499.84;;;0.58;100.00
71145;BME280;58812;47.698;17.726;2023-11-25T04:35:50;98500.16;;;0.64;100.00
71145;BME280;58812;47.698;17.726;2023-11-25T04:38:17;98500.63;;;0.69;100.00
71145;BME280;58812;47.698;17.726;2023-11-25T04:40:43;98505.75;;;0.71;100.00
71145;BME280;58812;47.698;17.726;2023-11-25T04:43:09;98499.72;;;0.80;100.00
71145;BME280;58812;47.698;17.726;2023-11-25T04:45:34;98498.50;;;0.84;100.00
71145;BME280;58812;47.698;17.726;2023-11-25T04:48:00;98495.06;;;0.84;100.00
71145;BME280;58812;47.698;17.726;2023-11-25T04:50:25;98497.88;;;0.92;100.00
71145;BME280;58812;47.698;17.726;2023-11-25T04:52:52;98506.47;;;0.94;100.00
71145;BME280;58812;47.698;17.726;2023-11-25T04:55:18;98508.84;;;0.97;100.00
71145;BME280;58812;47.698;17.726;2023-11-25T04:57:46;98512.63;;;1.04;100.00
71145;BME280;58812;47.698;17.726;2023-11-25T05:00:13;98510.44;;;1.09;100.00
71145;BME280;58812;47.698;17.726;2023-11-25T05:02:41;98517.16;;;1.13;100.00
71145;BME280;58812;47.698;17.726;2023-11-25T05:05:09;98508.00;;;1.17;100.00
71145;BME280;58812;47.698;17.726;2023-11-25T05:07:35;98509.41;;;1.21;100.00
71145;BME280;58812;47.698;17.726;2023-11-25T05:10:02;98517.19;;;1.23;100.00
71145;BME280;58812;47.698;17.726;2023-11-25T05:12:29;98522.75;;;1.29;99.69
71145;BME280;58812;47.698;17.726;2023-11-25T05:14:55;98520.13;;;1.29;99.87
71145;BME280;58812;47.698;17.726;2023-11-25T05:17:21;98508.63;;;1.30;99.99
71145;BME280;58812;47.698;17.726;2023-11-25T05:19:46;98504.19;;;1.31;100.00
71145;BME280;58812;47.698;17.726;2023-11-25T05:22:12;98514.75;;;1.31;100.00
71145;BME280;58812;47.698;17.726;2023-11-25T05:24:38;98511.97;;;1.32;100.00
71145;BME280;58812;47.698;17.726;2023-11-25T05:27:03;98513.38;;;1.37;99.35
71145;BME280;58812;47.698;17.726;2023-11-25T05:29:29;98510.22;;;1.43;99.07
71145;BME280;58812;47.698;17.726;2023-11-25T05:31:54;98513.09;;;1.40;99.21
71145;BME280;58812;47.698;17.726;2023-11-25T05:34:20;98516.78;;;1.48;98.11
71145;BME280;58812;47.698;17.726;2023-11-25T05:36:46;98515.06;;;1.47;98.24
71145;BME280;58812;47.698;17.726;2023-11-25T05:39:12;98520.94;;;1.51;97.38
71145;BME280;58812;47.698;17.726;2023-11-25T05:41:42;98519.66;;;1.45;98.03
71145;BME280;58812;47.698;17.726;2023-11-25T05:44:08;98512.13;;;1.41;98.18
71145;BME280;58812;47.698;17.726;2023-11-25T05:46:35;98519.22;;;1.40;98.31
71145;BME280;58812;47.698;17.726;2023-11-25T05:49:01;98515.06;;;1.38;98.63
71145;BME280;58812;47.698;17.726;2023-11-25T05:51:33;98514.22;;;1.37;99.14
71145;BME280;58812;47.698;17.726;2023-11-25T05:53:59;98517.53;;;1.39;98.77
71145;BME280;58812;47.698;17.726;2023-11-25T05:56:25;98510.84;;;1.35;98.85
71145;BME280;58812;47.698;17.726;2023-11-25T05:58:55;98520.56;;;1.34;99.29
71145;BME280;58812;47.698;17.726;2023-11-25T06:01:21;98530.28;;;1.34;99.45
71145;BME280;58812;47.698;17.726;2023-11-25T06:03:47;98526.44;;;1.38;99.22
71145;BME280;58812;47.698;17.726;2023-11-25T06:06:16;98527.25;;;1.39;98.98
71145;BME280;58812;47.698;17.726;2023-11-25T06:08:41;98527.25;;;1.39;99.25
71145;BME280;58812;47.698;17.726;2023-11-25T06:11:07;98536.13;;;1.38;99.54
71145;BME280;58812;47.698;17.726;2023-11-25T06:13:32;98532.78;;;1.36;99.87
71145;BME280;58812;47.698;17.726;2023-11-25T06:15:57;98534.59;;;1.35;100.00
71145;BME280;58812;47.698;17.726;2023-11-25T06:18:24;98516.09;;;1.25;100.00
71145;BME280;58812;47.698;17.726;2023-11-25T06:20:50;98531.50;;;1.30;100.00
71145;BME280;58812;47.698;17.726;2023-11-25T06:23:15;98532.38;;;1.30;100.00
71145;BME280;58812;47.698;17.726;2023-11-25T06:25:41;98528.88;;;1.30;100.00
71145;BME280;58812;47.698;17.726;2023-11-25T06:28:13;98534.03;;;1.31;100.00
71145;BME280;58812;47.698;17.726;2023-11-25T06:30:42;98539.16;;;1.33;100.00
71145;BME280;58812;47.698;17.726;2023-11-25T06:33:08;98538.88;;;1.36;100.00
71145;BME280;58812;47.698;17.726;2023-11-25T06:35:34;98548.06;;;1.42;100.00
71145;BME280;58812;47.698;17.726;2023-11-25T06:38:01;98544.81;;;1.49;99.57
71145;BME280;58812;47.698;17.726;2023-11-25T06:40:29;98550.53;;;1.54;99.74
71145;BME280;58812;47.698;17.726;2023-11-25T06:42:54;98550.09;;;1.59;99.61
71145;BME280;58812;47.698;17.726;2023-11-25T06:45:19;98549.84;;;1.62;100.00
71145;BME280;58812;47.698;17.726;2023-11-25T06:47:46;98550.28;;;1.67;100.00
71145;BME280;58812;47.698;17.726;2023-11-25T06:50:15;98561.41;;;1.71;100.00
71145;BME280;58812;47.698;17.726;2023-11-25T06:52:40;98557.41;;;1.76;100.00
71145;BME280;58812;47.698;17.726;2023-11-25T06:55:06;98556.03;;;1.82;100.00
71145;BME280;58812;47.698;17.726;2023-11-25T06:57:32;98560.22;;;1.84;100.00
71145;BME280;58812;47.698;17.726;2023-11-25T06:59:57;98568.84;;;1.86;99.77
71145;BME280;58812;47.698;17.726;2023-11-25T07:02:23;98579.53;;;1.95;98.09
71145;BME280;58812;47.698;17.726;2023-11-25T07:04:52;98579.16;;;1.99;96.98
71145;BME280;58812;47.698;17.726;2023-11-25T07:07:17;98581.78;;;1.99;98.44
71145;BME280;58812;47.698;17.726;2023-11-25T07:09:42;98585.13;;;2.01;100.00
71145;BME280;58812;47.698;17.726;2023-11-25T07:12:08;98568.87;;;2.06;99.42
71145;BME280;58812;47.698;17.726;2023-11-25T07:14:35;98562.72;;;2.26;98.34
71145;BME280;58812;47.698;17.726;2023-11-25T07:17:01;98568.81;;;2.36;97.37
71145;BME280;58812;47.698;17.726;2023-11-25T07:19:26;98576.50;;;2.39;96.57
71145;BME280;58812;47.698;17.726;2023-11-25T07:21:51;98567.00;;;2.37;96.71
71145;BME280;58812;47.698;17.726;2023-11-25T07:24:17;98578.13;;;2.31;95.62
71145;BME280;58812;47.698;17.726;2023-11-25T07:26:42;98569.22;;;2.22;95.86
71145;BME280;58812;47.698;17.726;2023-11-25T07:29:16;98568.66;;;2.19;95.41
71145;BME280;58812;47.698;17.726;2023-11-25T07:31:43;98563.94;;;2.22;95.67
71145;BME280;58812;47.698;17.726;2023-11-25T07:34:08;98574.78;;;2.29;95.76
71145;BME280;58812;47.698;17.726;2023-11-25T07:36:34;98574.25;;;2.35;94.39
71145;BME280;58812;47.698;17.726;2023-11-25T07:38:59;98568.56;;;2.39;94.75
71145;BME280;58812;47.698;17.726;2023-11-25T07:41:25;98562.72;;;2.46;94.92
71145;BME280;58812;47.698;17.726;2023-11-25T07:43:51;98573.44;;;2.54;95.13
71145;BME280;58812;47.698;17.726;2023-11-25T07:46:17;98580.56;;;2.63;94.61
71145;BME280;58812;47.698;17.726;2023-11-25T07:48:43;98572.91;;;2.70;93.44
71145;BME280;58812;47.698;17.726;2023-11-25T07:51:09;98572.50;;;2.74;93.48
71145;BME280;58812;47.698;17.726;2023-11-25T07:53:34;98581.41;;;2.73;92.96
71145;BME280;58812;47.698;17.726;2023-11-25T07:56:01;98571.22;;;2.78;92.83
71145;BME280;58812;47.698;17.726;2023-11-25T07:58:27;98590.16;;;2.83;92.19
71145;BME280;58812;47.698;17.726;2023-11-25T08:00:52;98582.94;;;2.85;92.14
71145;BME280;58812;47.698;17.726;2023-11-25T08:03:17;98581.78;;;2.78;92.45
71145;BME280;58812;47.698;17.726;2023-11-25T08:05:43;98594.31;;;2.76;92.54
71145;BME280;58812;47.698;17.726;2023-11-25T08:08:09;98596.41;;;2.63;92.70
71145;BME280;58812;47.698;17.726;2023-11-25T08:10:36;98602.62;;;2.52;94.07
71145;BME280;58812;47.698;17.726;2023-11-25T08:13:01;98596.78;;;2.49;94.26
71145;BME280;58812;47.698;17.726;2023-11-25T08:15:27;98612.94;;;2.55;93.65
71145;BME280;58812;47.698;17.726;2023-11-25T08:17:54;98609.47;;;2.64;93.91
71145;BME280;58812;47.698;17.726;2023-11-25T08:20:19;98604.34;;;2.82;93.84
71145;BME280;58812;47.698;17.726;2023-11-25T08:22:46;98622.56;;;2.85;93.92
71145;BME280;58812;47.698;17.726;2023-11-25T08:25:11;98618.53;;;2.81;92.85
71145;BME280;58812;47.698;17.726;2023-11-25T08:27:37;98627.16;;;2.74;92.37
71145;BME280;58812;47.698;17.726;2023-11-25T08:30:04;98642.41;;;2.60;91.79
71145;BME280;58812;47.698;17.726;2023-11-25T08:32:37;98644.50;;;2.57;92.77
71145;BME280;58812;47.698;17.726;2023-11-25T08:35:03;98654.88;;;2.49;92.93
71145;BME280;58812;47.698;17.726;2023-11-25T08:37:29;98659.75;;;2.44;93.86
71145;BME280;58812;47.698;17.726;2023-11-25T08:39:54;98666.44;;;2.48;94.41
71145;BME280;58812;47.698;17.726;2023-11-25T08:42:25;98679.03;;;2.34;93.57
71145;BME280;58812;47.698;17.726;2023-11-25T08:44:52;98692.41;;;2.42;93.76
71145;BME280;58812;47.698;17.726;2023-11-25T08:47:18;98692.94;;;2.36;94.41
71145;BME280;58812;47.698;17.726;2023-11-25T08:49:44;98693.03;;;2.25;94.24
71145;BME280;58812;47.698;17.726;2023-11-25T08:52:10;98705.81;;;2.20;94.28
71145;BME280;58812;47.698;17.726;2023-11-25T08:54:37;98704.84;;;2.21;95.02
71145;BME280;58812;47.698;17.726;2023-11-25T08:57:03;98716.75;;;2.16;93.98
71145;BME280;58812;47.698;17.726;2023-11-25T08:59:28;98710.88;;;2.12;93.82
71145;BME280;58812;47.698;17.726;2023-11-25T09:01:54;98726.22;;;2.18;95.00
71145;BME280;58812;47.698;17.726;2023-11-25T09:04:23;98718.00;;;1.91;94.83
71145;BME280;58812;47.698;17.726;2023-11-25T09:06:50;98720.69;;;2.00;96.09
71145;BME280;58812;47.698;17.726;2023-11-25T09:09:17;98736.66;;;1.99;96.09
71145;BME280;58812;47.698;17.726;2023-11-25T09:11:43;98729.03;;;1.96;96.37
71145;BME280;58812;47.698;17.726;2023-11-25T09:14:09;98742.22;;;1.96;96.26
71145;BME280;58812;47.698;17.726;2023-11-25T09:16:34;98752.69;;;1.65;95.09
71145;BME280;58812;47.698;17.726;2023-11-25T09:19:00;98751.47;;;1.48;96.88
71145;BME280;58812;47.698;17.726;2023-11-25T09:21:28;98761.88;;;1.50;98.24
71145;BME280;58812;47.698;17.726;2023-11-25T09:23:54;98779.91;;;1.33;99.78
71145;BME280;58812;47.698;17.726;2023-11-25T09:26:21;98774.91;;;1.19;100.00
71145;BME280;58812;47.698;17.726;2023-11-25T09:28:48;98775.75;;;1.20;100.00
71145;BME280;58812;47.698;17.726;2023-11-25T09:31:14;98779.13;;;0.99;100.00
71145;BME280;58812;47.698;17.726;2023-11-25T09:33:40;98781.28;;;0.94;100.00
71145;BME280;58812;47.698;17.726;2023-11-25T09:36:06;98784.06;;;0.93;100.00
71145;BME280;58812;47.698;17.726;2023-11-25T09:38:32;98782.13;;;0.95;100.00
71145;BME280;58812;47.698;17.726;2023-11-25T09:40:57;98784.41;;;0.99;100.00
71145;BME280;58812;47.698;17.726;2023-11-25T09:43:23;98789.53;;;1.12;100.00
71145;BME280;58812;47.698;17.726;2023-11-25T09:45:50;98786.66;;;1.15;100.00
71145;BME280;58812;47.698;17.726;2023-11-25T09:48:15;98786.41;;;1.18;100.00
71145;BME280;58812;47.698;17.726;2023-11-25T09:50:41;98787.75;;;1.56;100.00
71145;BME280;58812;47.698;17.726;2023-11-25T09:53:10;98791.72;;;1.71;100.00
71145;BME280;58812;47.698;17.726;2023-11-25T09:55:38;98785.19;;;2.28;100.00
71145;BME280;58812;47.698;17.726;2023-11-25T09:58:06;98789.69;;;2.68;100.00
71145;BME280;58812;47.698;17.726;2023-11-25T10:00:32;98771.06;;;3.29;99.54
71145;BME280;58812;47.698;17.726;2023-11-25T10:02:59;98777.78;;;3.53;97.07
71145;BME280;58812;47.698;17.726;2023-11-25T10:05:26;98781.34;;;3.13;92.60
71145;BME280;58812;47.698;17.726;2023-11-25T10:07:52;98774.19;;;2.54;93.09
71145;BME280;58812;47.698;17.726;2023-11-25T10:10:17;98768.47;;;2.49;92.06
71145;BME280;58812;47.698;17.726;2023-11-25T10:12:52;98768.88;;;2.44;91.47
71145;BME280;58812;47.698;17.726;2023-11-25T10:15:19;98778.28;;;2.37;91.06
71145;BME280;58812;47.698;17.726;2023-11-25T10:17:44;98786.34;;;2.35;88.49
71145;BME280;58812;47.698;17.726;2023-11-25T10:20:10;98773.31;;;2.74;82.99
71145;BME280;58812;47.698;17.726;2023-11-25T10:22:54;98766.94;;;3.46;80.51
71145;BME280;58812;47.698;17.726;2023-11-25T10:25:21;98778.03;;;4.17;73.79
71145;BME280;58812;47.698;17.726;2023-11-25T10:27:47;98775.88;;;4.77;72.08
71145;BME280;58812;47.698;17.726;2023-11-25T10:30:13;98775.09;;;4.95;69.07
71145;BME280;58812;47.698;17.726;2023-11-25T10:32:42;98787.41;;;4.59;66.43
71145;BME280;58812;47.698;17.726;2023-11-25T10:35:07;98783.75;;;4.60;65.18
71145;BME280;58812;47.698;17.726;2023-11-25T10:37:36;98773.47;;;4.57;65.39
71145;BME280;58812;47.698;17.726;2023-11-25T10:40:02;98776.13;;;5.12;64.69
71145;BME280;58812;47.698;17.726;2023-11-25T10:42:29;98779.44;;;5.59;64.12
71145;BME280;58812;47.698;17.726;2023-11-25T10:44:55;98768.66;;;4.70;65.21
71145;BME280;58812;47.698;17.726;2023-11-25T10:47:30;98757.84;;;4.53;64.30
71145;BME280;58812;47.698;17.726;2023-11-25T10:49:57;98772.88;;;4.16;64.61
71145;BME280;58812;47.698;17.726;2023-11-25T10:52:23;98774.63;;;4.35;65.81
71145;BME280;58812;47.698;17.726;2023-11-25T10:54:50;98770.00;;;3.80;65.78
71145;BME280;58812;47.698;17.726;2023-11-25T10:57:18;98769.16;;;3.41;67.23
71145;BME280;58812;47.698;17.726;2023-11-25T10:59:44;98771.50;;;3.34;68.62
71145;BME280;58812;47.698;17.726;2023-11-25T11:02:18;98765.03;;;2.98;67.69
71145;BME280;58812;47.698;17.726;2023-11-25T11:04:55;98762.00;;;3.03;68.74
71145;BME280;58812;47.698;17.726;2023-11-25T11:07:23;98767.00;;;3.06;68.03
71145;BME280;58812;47.698;17.726;2023-11-25T11:09:51;98767.81;;;3.06;68.05
71145;BME280;58812;47.698;17.726;2023-11-25T11:12:41;98765.22;;;3.16;68.09
71145;BME280;58812;47.698;17.726;2023-11-25T11:15:13;98766.19;;;3.15;68.13
71145;BME280;58812;47.698;17.726;2023-11-25T11:20:37;98763.66;;;3.04;68.28
71145;BME280;58812;47.698;17.726;2023-11-25T11:23:05;98762.28;;;3.09;68.09
71145;BME280;58812;47.698;17.726;2023-11-25T11:28:06;98769.78;;;3.14;68.51
71145;BME280;58812;47.698;17.726;2023-11-25T11:33:54;98763.47;;;2.95;68.62
71145;BME280;58812;47.698;17.726;2023-11-25T11:36:20;98763.81;;;3.12;67.57
71145;BME280;58812;47.698;17.726;2023-11-25T11:38:46;98763.28;;;3.37;67.15
71145;BME280;58812;47.698;17.726;2023-11-25T11:43:38;98769.72;;;3.44;63.61
71145;BME280;58812;47.698;17.726;2023-11-25T11:46:04;98766.75;;;3.09;62.42
71145;BME280;58812;47.698;17.726;2023-11-25T11:48:30;98776.50;;;3.28;62.21
71145;BME280;58812;47.698;17.726;2023-11-25T11:50:56;98776.63;;;3.16;62.56
71145;BME280;58812;47.698;17.726;2023-11-25T11:53:23;98776.53;;;3.47;61.25
71145;BME280;58812;47.698;17.726;2023-11-25T11:55:56;98783.66;;;3.56;63.28
71145;BME280;58812;47.698;17.726;2023-11-25T11:58:24;98780.56;;;3.41;63.27
71145;BME280;58812;47.698;17.726;2023-11-25T12:01:06;98768.59;;;3.47;64.23
71145;BME280;58812;47.698;17.726;2023-11-25T12:03:33;98779.16;;;3.47;65.71
71145;BME280;58812;47.698;17.726;2023-11-25T12:05:59;98774.28;;;3.23;64.93
71145;BME280;58812;47.698;17.726;2023-11-25T12:08:27;98770.53;;;3.35;63.41
71145;BME280;58812;47.698;17.726;2023-11-25T12:10:53;98760.50;;;3.87;61.37
71145;BME280;58812;47.698;17.726;2023-11-25T12:13:32;98761.09;;;4.38;59.83
71145;BME280;58812;47.698;17.726;2023-11-25T12:15:59;98762.47;;;4.51;59.34
71145;BME280;58812;47.698;17.726;2023-11-25T12:18:29;98769.44;;;4.80;58.00
71145;BME280;58812;47.698;17.726;2023-11-25T12:20:55;98770.50;;;5.42;58.04
71145;BME280;58812;47.698;17.726;2023-11-25T12:23:24;98764.44;;;4.77;58.43
71145;BME280;58812;47.698;17.726;2023-11-25T12:25:50;98773.81;;;4.15;60.73
71145;BME280;58812;47.698;17.726;2023-11-25T12:28:15;98782.50;;;4.07;61.89
71145;BME280;58812;47.698;17.726;2023-11-25T12:30:41;98769.41;;;3.67;64.07
71145;BME280;58812;47.698;17.726;2023-11-25T12:33:08;98778.75;;;3.52;65.56
71145;BME280;58812;47.698;17.726;2023-11-25T12:35:39;98780.56;;;3.41;66.13
71145;BME280;58812;47.698;17.726;2023-11-25T12:38:05;98777.16;;;3.20;67.37
71145;BME280;58812;47.698;17.726;2023-11-25T12:40:32;98776.06;;;3.13;68.46
71145;BME280;58812;47.698;17.726;2023-11-25T12:42:57;98783.16;;;3.03;68.23
71145;BME280;58812;47.698;17.726;2023-11-25T12:45:34;98774.50;;;3.01;68.82
71145;BME280;58812;47.698;17.726;2023-11-25T12:48:00;98781.19;;;3.05;70.01
71145;BME280;58812;47.698;17.726;2023-11-25T12:50:26;98775.06;;;3.14;69.71
71145;BME280;58812;47.698;17.726;2023-11-25T12:53:08;98787.75;;;3.10;69.33
71145;BME280;58812;47.698;17.726;2023-11-25T12:55:35;98789.37;;;3.02;69.52
71145;BME280;58812;47.698;17.726;2023-11-25T12:58:13;98788.44;;;3.03;69.48
71145;BME280;58812;47.698;17.726;2023-11-25T13:03:11;98799.41;;;3.08;70.21
71145;BME280;58812;47.698;17.726;2023-11-25T13:05:36;98791.47;;;2.98;69.08
71145;BME280;58812;47.698;17.726;2023-11-25T13:08:21;98796.72;;;2.88;69.43
71145;BME280;58812;47.698;17.726;2023-11-25T13:10:47;98796.56;;;2.80;69.17